Latest Weather Observations for Montague Island

IDN60901

Issued at 6:51 pm EDT Wednesday 25 November 2020 (issued every 10 minutes, with the page automatically refreshed every 10 minutes)

About weather observations | Map of Canberra area stations | Latest observations for Canberra area | Other Formats
Station Details ID: 069017 Name: MONTAGUE ISLAND LIGHTHOUSE Lat: -36.25 Lon: 150.23 Height: 52.0 m
Data from the previous 72 hours. | See also: Recent months at Montague Island
Date/Time
EDT
Temp
°C
App
Temp
°C
Dew
Point
°C
Rel
Hum
%
Delta-T
°C
Wind Press
QNH
hPa
Press
MSL
hPa
Rain since
9am
mm
Dir  Spd
km/h
Gust
km/h
Spd
kts
Gust
kts
25/06:30pm 19.4 14.5 17.2 87 1.3 NNE 39 48 21 26 1008.9 1008.8 0.0
25/06:00pm 19.6 13.9 17.2 86 1.5 NNE 43 54 23 29 1008.9 1008.8 0.0
25/05:30pm 19.6 13.6 17.0 85 1.6 NNE 44 52 24 28 1008.6 1008.5 0.0
25/05:00pm 19.7 13.8 17.1 85 1.6 NNE 44 57 24 31 1008.7 1008.6 0.0
25/04:30pm 19.7 13.7 16.9 84 1.7 NNE 44 57 24 31 1008.8 1008.7 0.0
25/04:00pm 19.6 13.1 16.6 83 1.8 NNE 46 59 25 32 1009.0 1008.9 0.0
25/03:30pm 19.9 14.1 16.9 83 1.8 NNE 43 54 23 29 1009.5 1009.4 0.0
25/03:00pm 19.9 13.3 16.3 80 2.2 NNE 46 57 25 31 1010.0 1009.9 0.0
25/02:30pm 20.0 13.6 15.8 77 2.5 NNE 44 56 24 30 1010.6 1010.5 0.0
25/02:00pm 20.0 13.7 15.6 76 2.6 NNE 43 56 23 30 1011.0 1010.9 0.0
25/01:30pm 19.8 13.4 15.4 76 2.6 NNE 43 52 23 28 1011.6 1011.5 0.0
25/01:00pm 19.7 13.6 15.1 75 2.7 NNE 41 48 22 26 1012.0 1011.9 0.0
25/12:30pm 19.9 14.5 14.9 73 2.9 NNE 37 44 20 24 1012.7 1012.6 0.0
25/12:00pm 20.1 14.8 15.3 74 2.8 NNE 37 43 20 23 1013.1 1012.9 0.0
25/11:30am 19.6 14.9 15.9 79 2.2 NNE 35 39 19 21 1013.5 1013.4 0.0
25/11:00am 20.0 16.5 15.4 75 2.7 NNE 28 35 15 19 1014.0 1013.9 0.0
25/10:30am 19.5 17.4 14.7 74 2.8 N 19 28 10 15 1014.2 1014.1 0.0
25/10:00am 19.9 18.9 15.7 77 2.5 NNW 15 24 8 13 1014.4 1014.3 0.0
25/09:30am 19.4 18.2 15.1 76 2.5 N 15 22 8 12 1014.5 1014.4 0.0
25/09:00am 18.9 18.9 15.2 79 2.2 N 9 19 5 10 1014.7 1014.6 0.0
25/08:30am 17.5 17.0 13.8 79 2.1 N 9 11 5 6 1015.0 1014.9 0.0
25/08:00am 17.6 17.5 13.9 79 2.1 N 7 13 4 7 1014.9 1014.8 0.0
25/07:30am 17.4 17.3 13.9 80 2.0 N 7 13 4 7 1014.6 1014.5 0.0
25/07:00am 17.2 17.2 14.1 82 1.8 NNW 7 9 4 5 1014.2 1014.1 0.0
25/06:30am 17.4 18.3 12.9 75 2.5 CALM 0 0 0 0 1014.2 1014.1 0.0
25/06:00am 17.2 17.7 12.9 76 2.4 E 2 4 1 2 1014.1 1014.0 0.0
25/05:30am 17.2 16.8 13.1 77 2.3 ESE 7 11 4 6 1013.7 1013.6 0.0
25/05:00am 17.2 16.8 13.1 77 2.3 ESE 7 9 4 5 1013.6 1013.5 0.0
25/04:30am 17.1 17.0 13.2 78 2.2 ESE 6 9 3 5 1013.4 1013.2 0.0
25/04:00am 16.8 16.8 13.7 82 1.8 SSW 6 7 3 4 1013.4 1013.2 0.0
25/03:30am 17.2 15.8 13.3 78 2.2 ESE 13 17 7 9 1013.7 1013.6 0.0
25/03:00am 17.3 15.5 13.4 78 2.2 ESE 15 17 8 9 1013.8 1013.7 0.0
25/02:30am 17.2 15.5 13.5 79 2.1 ESE 15 17 8 9 1013.9 1013.8 0.0
25/02:00am 17.2 15.5 13.5 79 2.1 ESE 15 19 8 10 1014.0 1013.9 0.0
25/01:30am 17.2 15.5 13.5 79 2.1 ESE 15 19 8 10 1014.1 1014.0 0.0
25/01:00am 17.1 15.3 13.2 78 2.2 SE 15 19 8 10 1014.5 1014.4 0.0
25/12:30am 17.4 15.3 13.7 79 2.1 ESE 17 20 9 11 1014.8 1014.7 0.0
25/12:00am 17.4 15.3 13.7 79 2.1 SE 17 20 9 11 1015.1 1015.0 0.0
 
Date/Time
EDT
Temp
°C
App
Temp
°C
Dew
Point
°C
Rel
Hum
%
Delta-T
°C
Wind Press
QNH
hPa
Press
MSL
hPa
Rain since
9am
mm
Dir  Spd
km/h
Gust
km/h
Spd
kts
Gust
kts
24/11:30pm 17.5 15.0 13.6 78 2.2 SE 19 22 10 12 1015.2 1015.1 0.0
24/11:00pm 17.6 14.9 13.5 77 2.3 SE 20 24 11 13 1015.2 1015.1 0.0
24/10:30pm 17.5 15.3 13.4 77 2.3 SE 17 20 9 11 1015.3 1015.2 0.0
24/10:00pm 17.5 14.9 13.2 76 2.4 SE 19 20 10 11 1015.3 1015.2 0.0
24/09:30pm 17.4 14.8 13.3 77 2.3 SE 19 24 10 13 1015.0 1014.9 0.0
24/09:00pm 17.5 15.0 13.6 78 2.2 SE 19 22 10 12 1014.5 1014.4 0.0
24/08:30pm 17.3 14.1 13.2 77 2.3 SE 22 26 12 14 1014.2 1014.1 0.0
24/08:00pm 17.3 13.2 13.8 80 2.0 SE 28 32 15 17 1013.8 1013.7 0.0
24/07:30pm 17.3 12.2 13.8 80 2.0 SE 33 39 18 21 1013.4 1013.2 0.0
24/07:00pm 17.6 12.6 14.1 80 2.0 SE 33 39 18 21 1012.8 1012.7 0.0
24/06:30pm 17.6 12.8 14.1 80 2.0 SE 32 37 17 20 1012.4 1012.3 0.0
24/06:00pm 17.6 12.6 13.9 79 2.1 SE 33 39 18 21 1011.9 1011.8 0.0
24/05:30pm 18.1 12.8 14.2 78 2.2 SE 35 41 19 22 1011.7 1011.6 0.0
24/05:00pm 18.4 14.1 14.3 77 2.4 SE 30 37 16 20 1011.5 1011.4 0.0
24/04:30pm 18.8 15.0 14.7 77 2.4 SE 28 33 15 18 1011.2 1011.1 0.0
24/04:00pm 19.0 15.3 15.1 78 2.3 SE 28 32 15 17 1011.2 1011.1 0.0
24/03:30pm 19.0 15.1 14.5 75 2.6 SE 28 32 15 17 1011.2 1011.1 0.0
24/03:00pm 19.4 15.6 14.6 74 2.8 SE 28 32 15 17 1011.1 1011.0 0.0
24/02:30pm 19.4 15.3 14.9 75 2.6 SE 30 33 16 18 1011.2 1011.1 0.0
24/02:00pm 19.3 14.9 14.1 72 3.0 SE 30 33 16 18 1011.3 1011.2 0.0
24/01:30pm 19.6 14.8 14.6 73 2.9 SE 33 37 18 20 1011.2 1011.1 0.0
24/01:00pm 19.4 15.4 14.2 72 3.0 SE 28 33 15 18 1011.5 1011.4 0.0
24/12:30pm 19.7 15.1 14.5 72 3.0 SE 32 35 17 19 1011.8 1011.7 0.0
24/12:00pm 19.2 15.5 13.8 71 3.1 SE 26 30 14 16 1011.9 1011.8 0.0
24/11:30am 19.3 16.1 13.0 67 3.6 SSE 22 24 12 13 1011.7 1011.6 0.0
24/11:00am 19.7 17.2 13.4 67 3.6 SE 19 22 10 12 1011.4 1011.3 0.0
24/10:30am 20.0 17.7 13.0 64 4.0 S 17 22 9 12 1011.6 1011.5 0.0
24/10:00am 20.4 17.9 13.6 65 3.9 SSW 19 24 10 13 1011.7 1011.6 0.0
24/09:30am 19.6 16.0 13.1 66 3.7 SSW 24 30 13 16 1011.9 1011.8 0.0
24/09:00am 18.6 15.4 13.2 71 3.1 SW 22 28 12 15 1011.9 1011.8 14.4
24/08:30am 18.0 14.0 12.9 72 2.9 SW 26 33 14 18 1011.7 1011.6 14.4
24/08:00am 18.8 14.8 14.1 74 2.7 SW 28 37 15 20 1011.3 1011.2 14.4
24/07:30am 18.3 13.4 13.8 75 2.6 SSW 32 39 17 21 1010.6 1010.5 14.4
24/07:00am 18.3 13.6 14.2 77 2.4 SSW 32 39 17 21 1010.2 1010.1 14.4
24/06:30am 17.8 11.3 14.1 79 2.1 S 41 46 22 25 1009.8 1009.7 14.4
24/06:00am 17.3 11.2 14.0 81 1.9 S 39 46 21 25 1009.6 1009.5 14.4
24/05:30am 17.0 11.8 14.6 86 1.4 S 35 44 19 24 1009.6 1009.5 14.4
24/05:00am 17.3 11.4 14.6 84 1.6 SSW 39 46 21 25 1009.5 1009.4 14.4
24/04:30am 17.3 11.8 14.8 85 1.4 SSW 37 44 20 24 1009.3 1009.2 14.4
24/04:00am 17.3 12.0 15.3 88 1.2 SSW 37 44 20 24 1009.1 1009.0 14.4
24/03:30am 17.5 12.3 15.5 88 1.2 SSW 37 44 20 24 1008.9 1008.8 14.4
24/03:00am 17.5 13.1 15.7 89 1.1 SSW 33 41 18 22 1008.8 1008.7 14.4
24/02:30am 17.6 13.4 15.8 89 1.1 S 32 41 17 22 1009.0 1008.9 14.4
24/02:00am 17.9 13.1 15.5 86 1.4 S 35 43 19 23 1009.1 1009.0 14.4
24/01:30am 18.1 12.9 15.5 85 1.5 SSW 37 46 20 25 1008.9 1008.8 14.4
24/01:00am 18.0 13.8 15.8 87 1.3 SSW 32 39 17 21 1009.1 1009.0 14.4
24/12:30am 18.1 13.5 16.1 88 1.2 SSW 35 43 19 23 1009.3 1009.2 14.4
24/12:00am 18.3 12.5 15.9 86 1.4 SSW 41 48 22 26 1009.1 1009.0 14.4
 
Date/Time
EDT
Temp
°C
App
Temp
°C
Dew
Point
°C
Rel
Hum
%
Delta-T
°C
Wind Press
QNH
hPa
Press
MSL
hPa
Rain since
9am
mm
Dir  Spd
km/h
Gust
km/h
Spd
kts
Gust
kts
23/11:30pm 18.4 13.8 16.0 86 1.4 SSW 35 43 19 23 1009.0 1008.9 14.4
23/11:00pm 18.6 14.5 16.4 87 1.3 SSW 33 41 18 22 1008.9 1008.8 14.4
23/10:30pm 18.6 13.7 16.4 87 1.3 SSW 37 46 20 25 1008.6 1008.5 14.4
23/10:00pm 18.7 13.4 16.3 86 1.4 SSW 39 48 21 26 1008.2 1008.1 14.4
23/09:30pm 18.8 14.0 16.6 87 1.3 S 37 46 20 25 1007.7 1007.6 14.4
23/09:00pm 18.6 15.6 16.8 89 1.1 S 28 35 15 19 1007.5 1007.4 14.4
23/08:30pm 18.5 16.2 16.7 89 1.1 S 24 32 13 17 1007.2 1007.1 14.4
23/08:00pm 18.6 15.8 16.4 87 1.3 SSW 26 35 14 19 1006.9 1006.8 14.4
23/07:30pm 18.8 13.2 16.4 86 1.4 S 41 48 22 26 1006.6 1006.5 14.4
23/07:00pm 19.1 13.9 16.5 85 1.6 SSW 39 46 21 25 1005.9 1005.8 14.4
23/06:30pm 19.3 11.9 16.2 82 1.9 SSW 50 61 27 33 1005.5 1005.4 14.4
23/06:00pm 18.6 8.1 15.7 83 1.7 S 65 82 35 44 1004.6 1004.5 14.4
23/05:48pm 19.8 11.3 16.4 81 2.0 S 56 76 30 41 1004.3 1004.2 14.4
23/05:43pm 20.1 14.3 17.3 84 1.7 S 44 70 24 38 1004.5 1004.4 14.4
23/05:30pm 20.7 15.0 17.3 81 2.1 S 43 52 23 28 1004.3 1004.2 14.4
23/05:00pm 20.8 17.1 18.4 86 1.5 S 35 46 19 25 1003.7 1003.6 14.4
23/04:30pm 20.4 18.9 18.5 89 1.2 S 24 32 13 17 1003.5 1003.4 14.4
23/04:00pm 20.2 17.1 18.3 89 1.2 SSW 32 37 17 20 1003.2 1003.1 14.4
23/03:30pm 19.6 16.5 18.4 93 0.7 SSW 32 43 17 23 1003.3 1003.2 14.4
23/03:00pm 18.8 17.1 18.1 96 0.4 SSE 24 28 13 15 1001.6 1001.5 14.4
23/02:50pm 18.4 16.2 17.8 96 0.4 SSE 26 30 14 16 1000.9 1000.8 14.4
23/02:30pm 18.1 15.4 17.6 97 0.3 S 28 37 15 20 1002.9 1002.8 14.2
23/02:14pm 17.5 10.3 16.7 95 0.5 SW 50 89 27 48 1003.8 1003.7 14.2
23/02:04pm 18.9 11.9 18.1 95 0.5 WSW 52 76 28 41 1004.9 1004.8 10.0
23/02:00pm 19.0 13.6 17.8 93 0.7 WSW 43 65 23 35 1004.7 1004.6 6.8
23/01:57pm 19.4 16.2 18.1 92 0.8 WSW 32 65 17 35 1004.3 1004.2 4.0
23/01:54pm 19.9 19.7 18.6 92 0.8 SSW 17 50 9 27 1004.0 1003.9 1.8
23/01:30pm 20.2 22.0 18.3 89 1.2 W 6 9 3 5 1003.1 1003.0 0.0
23/01:00pm 21.3 23.6 19.4 89 1.2 SSW 6 9 3 5 1003.1 1003.0 0.0
23/12:30pm 20.6 22.0 18.7 89 1.2 SSW 9 13 5 7 1003.4 1003.3 0.0
23/12:00pm 21.2 22.9 19.3 89 1.2 SW 9 13 5 7 1004.1 1004.0 0.0
23/11:30am 20.6 21.2 18.7 89 1.2 SE 13 17 7 9 1003.6 1003.5 0.0
23/11:00am 20.9 20.9 19.0 89 1.2 SSW 17 22 9 12 1005.0 1004.9 0.0
23/10:30am 21.1 22.4 19.2 89 1.2 WNW 11 17 6 9 1004.6 1004.5 0.0
23/10:00am 20.5 21.3 19.0 91 0.9 NW 13 15 7 8 1004.3 1004.2 0.0
23/09:30am 20.6 20.6 18.9 90 1.1 NNW 17 22 9 12 1004.9 1004.8 0.0
23/09:00am 20.6 20.2 19.4 93 0.8 NNW 20 26 11 14 1004.6 1004.5 2.4
23/08:30am 20.0 19.7 19.2 95 0.5 NNW 19 24 10 13 1005.5 1005.4 2.4
23/08:00am 19.7 18.9 18.5 93 0.7 NNW 20 24 11 13 1005.6 1005.5 2.4
23/07:30am 19.8 18.6 18.5 92 0.8 NNW 22 26 12 14 1005.5 1005.4 2.4
23/07:00am 19.9 19.4 18.7 93 0.8 NNW 19 24 10 13 1006.1 1006.0 2.4
23/06:30am 19.9 17.7 18.7 93 0.8 N 28 32 15 17 1006.2 1006.1 2.4
23/06:00am 19.7 17.1 18.7 94 0.6 N 30 37 16 20 1006.8 1006.7 2.4
23/05:30am 19.8 18.1 19.0 95 0.5 N 26 32 14 17 1006.8 1006.7 2.2
23/05:00am 19.5 19.8 18.8 96 0.4 NW 15 20 8 11 1007.2 1007.1 2.0
23/04:30am 19.7 19.7 19.0 96 0.4 NNW 17 20 9 11 1007.4 1007.3 2.0
23/04:00am 19.7 19.2 19.0 96 0.4 NNW 20 26 11 14 1007.7 1007.6 2.0
23/03:30am 19.5 20.6 18.8 96 0.4 N 11 17 6 9 1007.8 1007.7 2.0
23/03:00am 19.4 19.6 18.6 95 0.5 NNW 15 17 8 9 1008.4 1008.3 1.8
23/02:30am 19.0 19.5 18.3 96 0.4 WNW 13 15 7 8 1008.8 1008.7 0.6
23/02:00am 19.3 19.9 18.6 96 0.4 W 13 17 7 9 1008.8 1008.7 0.2
23/01:30am 19.3 21.0 18.6 96 0.4 W 7 9 4 5 1008.5 1008.4 0.2
23/01:00am 19.2 19.1 18.7 97 0.3 WNW 17 17 9 9 1009.0 1008.9 0.2
23/12:30am 19.2 20.1 18.5 96 0.4 WNW 11 13 6 7 1009.3 1009.2 0.2
23/12:00am 19.4 20.8 18.6 95 0.5 NNW 9 13 5 7 1010.1 1010.0 0.2
 
Date/Time
EDT
Temp
°C
App
Temp
°C
Dew
Point
°C
Rel
Hum
%
Delta-T
°C
Wind Press
QNH
hPa
Press
MSL
hPa
Rain since
9am
mm
Dir  Spd
km/h
Gust
km/h
Spd
kts
Gust
kts
22/11:30pm 19.9 22.3 18.7 93 0.8 ESE 4 7 2 4 1010.4 1010.3 0.2
22/11:00pm 19.8 21.3 18.8 94 0.6 ESE 9 11 5 6 1010.9 1010.8 0.2
22/10:30pm 19.6 20.3 18.8 95 0.5 SE 13 17 7 9 1010.9 1010.8 0.2
22/10:00pm 19.5 20.5 18.7 95 0.5 SSE 11 13 6 7 1011.2 1011.1 0.2
22/09:30pm 19.7 18.8 19.0 96 0.4 SSW 22 24 12 13 1011.0 1010.9 0.2
22/09:00pm 19.6 18.6 18.9 96 0.4 SSW 22 26 12 14 1011.0 1010.9 0.2
22/08:30pm 19.5 17.7 18.8 96 0.4 S 26 30 14 16 1010.5 1010.4 0.2
22/08:00pm 19.2 17.3 18.5 96 0.4 SSW 26 33 14 18 1011.1 1011.0 0.2
22/07:30pm 19.6 17.9 18.9 96 0.4 S 26 30 14 16 1011.2 1011.1 0.2
22/07:00pm 19.9 20.6 18.9 94 0.6 S 13 43 7 23 1010.9 1010.8 0.0
22/06:56pm 20.1 21.7 19.1 94 0.6 E 9 43 5 23 1010.5 1010.4 0.0

Latest Capital City Observations: Canberra | Sydney | Melbourne | Brisbane | Adelaide | Perth | Hobart | Darwin

Other formats

Comma delimited format used in spreadsheet applications
http://www.bom.gov.au/fwo/IDN60903/IDN60903.94939.axf

JavaScript Object Notation format (JSON) in row-major order
http://www.bom.gov.au/fwo/IDN60903/IDN60903.94939.json

Data quality

Most of these data are generated automatically and are frequently updated. Quality checks on data are not normally performed. It is possible for incorrect values to appear. Refer to information at About Latest Weather Observations and please check the disclaimer before using these data.